createdAt,value
2022-12-03T00:00:26.688Z,22.27
2022-12-03T00:02:53.406Z,28.95
2022-12-03T00:05:20.583Z,26.83
2022-12-03T00:07:47.450Z,19.88
2022-12-03T00:10:14.367Z,24.40
2022-12-03T00:12:41.165Z,29.02
2022-12-03T00:15:09.376Z,27.88
2022-12-03T00:17:36.178Z,28.30
2022-12-03T00:20:03.037Z,25.77
2022-12-03T00:22:29.861Z,22.02
2022-12-03T00:24:56.856Z,24.73
2022-12-03T00:27:23.695Z,24.27
2022-12-03T00:29:50.561Z,29.25
2022-12-03T00:32:17.255Z,28.58
2022-12-03T00:34:44.059Z,23.88
2022-12-03T00:37:10.772Z,30.30
2022-12-03T00:39:38.062Z,23.00
2022-12-03T00:42:05.182Z,26.27
2022-12-03T00:44:31.887Z,23.55
2022-12-03T00:46:59.117Z,24.30
2022-12-03T00:49:26.222Z,23.27
2022-12-03T00:51:53.118Z,23.02
2022-12-03T00:54:19.877Z,23.45
2022-12-03T00:56:46.657Z,26.02
2022-12-03T00:59:13.687Z,26.17
2022-12-03T01:01:40.702Z,29.23
2022-12-03T01:04:08.186Z,26.90
2022-12-03T01:06:35.177Z,26.35
2022-12-03T01:09:01.952Z,20.70
2022-12-03T01:11:37.481Z,22.38
2022-12-03T01:14:07.813Z,24.42
2022-12-03T01:16:35.073Z,22.27
2022-12-03T01:19:02.026Z,24.05
2022-12-03T01:21:28.813Z,19.58
2022-12-03T01:23:55.636Z,19.10
2022-12-03T01:26:22.481Z,27.15
2022-12-03T01:28:49.206Z,18.45
2022-12-03T01:31:35.502Z,17.95
2022-12-03T01:34:02.952Z,18.70
2022-12-03T01:36:29.782Z,16.98
2022-12-03T01:38:56.613Z,20.65
2022-12-03T01:41:24.897Z,18.10
2022-12-03T01:43:52.894Z,17.17
2022-12-03T01:46:25.481Z,18.83
2022-12-03T01:48:53.595Z,18.08
2022-12-03T01:51:20.316Z,20.13
2022-12-03T01:53:47.209Z,24.27
2022-12-03T01:56:15.448Z,19.15
2022-12-03T01:58:42.783Z,17.17
2022-12-03T02:01:13.857Z,17.63
2022-12-03T02:03:41.282Z,22.90
2022-12-03T02:06:19.302Z,19.88
2022-12-03T02:08:46.515Z,22.67
2022-12-03T02:11:20.776Z,19.65
2022-12-03T02:13:50.024Z,18.48
2022-12-03T02:16:16.791Z,22.05
2022-12-03T02:18:43.750Z,22.08
2022-12-03T02:21:17.796Z,18.67
2022-12-03T02:24:03.064Z,18.73
2022-12-03T02:26:30.022Z,17.13
2022-12-03T02:28:57.213Z,17.50
2022-12-03T02:31:24.213Z,15.88
2022-12-03T02:33:52.347Z,17.05
2022-12-03T02:36:19.369Z,18.98
2022-12-03T02:38:46.642Z,19.13
2022-12-03T02:41:34.695Z,15.45
2022-12-03T02:44:02.017Z,15.75
2022-12-03T02:46:29.490Z,15.93
2022-12-03T02:48:56.579Z,23.80
2022-12-03T02:51:23.449Z,14.13
2022-12-03T02:53:52.153Z,16.73
2022-12-03T02:56:20.624Z,18.85
2022-12-03T02:58:48.957Z,15.35
2022-12-03T03:01:17.012Z,17.40
2022-12-03T03:03:45.752Z,18.63
2022-12-03T03:06:13.358Z,17.95
2022-12-03T03:08:40.443Z,18.10
2022-12-03T03:11:07.310Z,19.27
2022-12-03T03:13:34.634Z,15.93
2022-12-03T03:16:05.736Z,15.38
2022-12-03T03:18:33.603Z,17.13
2022-12-03T03:21:00.721Z,15.77
2022-12-03T03:23:27.576Z,15.73
2022-12-03T03:25:59.413Z,20.40
2022-12-03T03:28:27.100Z,21.38
2022-12-03T03:30:54.240Z,18.25
2022-12-03T03:33:21.609Z,20.13
2022-12-03T03:35:49.120Z,17.83
2022-12-03T03:38:17.778Z,18.85
2022-12-03T03:40:45.008Z,21.73
2022-12-03T03:43:12.631Z,16.58
2022-12-03T03:45:39.505Z,18.75
2022-12-03T03:48:07.000Z,17.05
2022-12-03T03:50:34.004Z,18.58
2022-12-03T03:53:01.468Z,20.45
2022-12-03T03:55:28.623Z,19.42
2022-12-03T03:57:55.492Z,18.40
2022-12-03T04:00:22.332Z,17.17
2022-12-03T04:02:49.085Z,15.73
2022-12-03T04:05:20.733Z,16.63
2022-12-03T04:07:48.203Z,16.60
2022-12-03T04:10:33.543Z,22.20
2022-12-03T04:13:01.118Z,16.00
2022-12-03T04:15:28.348Z,15.48
2022-12-03T04:18:14.028Z,16.13
2022-12-03T04:20:41.297Z,24.42
2022-12-03T04:23:08.211Z,15.75
2022-12-03T04:25:53.214Z,20.42
2022-12-03T04:28:38.600Z,17.23
2022-12-03T04:31:25.901Z,20.65
2022-12-03T04:34:11.730Z,16.48
2022-12-03T04:36:39.029Z,18.45
2022-12-03T04:39:06.557Z,16.98
2022-12-03T04:41:33.323Z,17.95
2022-12-03T04:44:18.810Z,17.23
2022-12-03T04:46:45.575Z,19.70
2022-12-03T04:49:12.739Z,19.05
2022-12-03T04:51:39.531Z,21.50
2022-12-03T04:54:06.463Z,19.67
2022-12-03T04:56:33.202Z,24.90
2022-12-03T04:59:00.227Z,29.17
2022-12-03T05:01:27.194Z,24.42
2022-12-03T05:03:54.692Z,23.95
2022-12-03T05:06:22.407Z,26.77
2022-12-03T05:08:49.492Z,23.67
2022-12-03T05:11:16.195Z,19.85
2022-12-03T05:13:43.311Z,19.20
2022-12-03T05:16:10.273Z,20.00
2022-12-03T05:18:37.195Z,19.83
2022-12-03T05:21:04.921Z,24.05
2022-12-03T05:23:32.042Z,19.02
2022-12-03T05:25:58.750Z,18.67
2022-12-03T05:28:25.460Z,19.52
2022-12-03T05:30:52.463Z,23.38
2022-12-03T05:33:19.460Z,24.35
2022-12-03T05:35:46.165Z,20.30
2022-12-03T05:38:13.049Z,22.42
2022-12-03T05:40:40.687Z,23.52
2022-12-03T05:43:07.778Z,20.75
2022-12-03T05:45:42.265Z,20.70
2022-12-03T05:48:10.475Z,22.38
2022-12-03T05:50:37.795Z,19.35
2022-12-03T05:53:17.248Z,25.25
2022-12-03T05:55:44.112Z,24.02
2022-12-03T05:58:11.826Z,23.85
2022-12-03T06:00:42.746Z,27.27
2022-12-03T06:03:10.388Z,30.30
2022-12-03T06:05:37.822Z,23.48
2022-12-03T06:08:04.863Z,23.73
2022-12-03T06:10:32.525Z,24.90
2022-12-03T06:12:59.423Z,24.42
2022-12-03T06:15:26.446Z,20.58
2022-12-03T06:17:53.157Z,24.13
2022-12-03T06:20:20.317Z,20.60
2022-12-03T06:22:48.085Z,21.70
2022-12-03T06:25:15.406Z,25.08
2022-12-03T06:27:42.497Z,24.55
2022-12-03T06:30:11.318Z,19.35
2022-12-03T06:32:40.316Z,22.08
2022-12-03T06:35:07.188Z,25.58
2022-12-03T06:37:33.846Z,21.38
2022-12-03T06:40:00.570Z,24.98
2022-12-03T06:42:27.259Z,22.02
2022-12-03T06:44:54.402Z,21.38
2022-12-03T06:47:24.689Z,26.15
2022-12-03T06:49:56.984Z,23.58
2022-12-03T06:52:24.109Z,22.90
2022-12-03T06:54:52.997Z,23.95
2022-12-03T06:57:22.715Z,22.55
2022-12-03T06:59:55.685Z,21.52
2022-12-03T07:02:30.646Z,21.77
2022-12-03T07:04:58.178Z,22.92
2022-12-03T07:07:31.696Z,24.02
2022-12-03T07:10:01.381Z,26.58
2022-12-03T07:12:28.826Z,27.60
2022-12-03T07:15:06.806Z,27.45
2022-12-03T07:17:34.544Z,27.88
2022-12-03T07:20:01.672Z,25.67
2022-12-03T07:22:32.866Z,25.27
2022-12-03T07:25:01.636Z,23.05
2022-12-03T07:27:29.095Z,25.63
2022-12-03T07:30:01.390Z,26.27
2022-12-03T07:32:28.383Z,27.42
2022-12-03T07:34:56.953Z,26.80
2022-12-03T07:37:24.271Z,25.98
2022-12-03T07:39:52.563Z,29.75
2022-12-03T07:42:19.295Z,27.38
2022-12-03T07:44:46.044Z,27.65
2022-12-03T07:47:13.323Z,26.27
2022-12-03T07:49:40.345Z,29.25
2022-12-03T07:52:07.330Z,29.48
2022-12-03T07:54:34.366Z,23.58
2022-12-03T07:57:02.090Z,24.73
2022-12-03T07:59:30.183Z,29.95
2022-12-03T08:01:57.401Z,26.83
2022-12-03T08:04:24.718Z,32.00
2022-12-03T08:06:52.952Z,31.55
2022-12-03T08:09:28.404Z,28.60
2022-12-03T08:11:55.411Z,29.70
2022-12-03T08:14:22.321Z,29.98
2022-12-03T08:16:49.111Z,28.35
2022-12-03T08:19:16.721Z,29.52
2022-12-03T08:21:43.620Z,29.55
2022-12-03T08:24:20.440Z,27.55
2022-12-03T08:26:48.621Z,29.20
2022-12-03T08:29:17.220Z,30.08
2022-12-03T08:31:52.209Z,31.02
2022-12-03T08:34:20.466Z,29.40
2022-12-03T08:36:48.727Z,32.60
2022-12-03T08:39:35.745Z,26.92
2022-12-03T08:42:27.977Z,28.83
2022-12-03T08:44:55.694Z,34.10
2022-12-03T08:47:24.045Z,30.70
2022-12-03T08:49:55.819Z,28.33
2022-12-03T08:52:23.074Z,28.92
2022-12-03T08:54:54.183Z,27.05
2022-12-03T08:57:25.542Z,27.85
2022-12-03T09:00:16.038Z,32.97
2022-12-03T09:02:50.179Z,27.55
2022-12-03T09:05:19.782Z,30.38
2022-12-03T09:07:46.710Z,34.15
2022-12-03T09:10:14.086Z,35.42
2022-12-03T09:12:41.131Z,37.05
2022-12-03T09:15:08.069Z,30.98
2022-12-03T09:17:34.934Z,33.60
2022-12-03T09:20:01.937Z,33.53
2022-12-03T09:22:28.728Z,39.03
2022-12-03T09:24:56.006Z,29.77
2022-12-03T09:27:23.314Z,37.10
2022-12-03T09:29:50.344Z,35.92
2022-12-03T09:32:18.808Z,30.58
2022-12-03T09:34:46.039Z,27.42
2022-12-03T09:37:12.844Z,33.78
2022-12-03T09:39:39.514Z,35.30
2022-12-03T09:42:06.334Z,37.33
2022-12-03T09:44:34.455Z,31.48
2022-12-03T09:47:03.467Z,31.63
2022-12-03T09:49:35.732Z,27.88
2022-12-03T09:52:07.340Z,29.52
2022-12-03T09:54:47.377Z,26.83
2022-12-03T09:57:31.614Z,33.70
2022-12-03T10:00:21.074Z,34.95
2022-12-03T10:02:51.857Z,35.17
2022-12-03T10:05:25.161Z,36.78
2022-12-03T10:08:01.136Z,39.25
2022-12-03T10:10:39.702Z,36.05
2022-12-03T10:13:12.622Z,37.30
2022-12-03T10:15:44.892Z,32.72
2022-12-03T10:20:50.192Z,37.65
2022-12-03T10:23:30.195Z,41.70
2022-12-03T10:26:03.486Z,41.55
2022-12-03T10:28:36.162Z,40.58
2022-12-03T10:31:09.705Z,43.40
2022-12-03T10:33:38.662Z,41.47
2022-12-03T10:36:22.739Z,39.90
2022-12-03T10:39:16.243Z,37.03
2022-12-03T10:41:50.766Z,36.45
2022-12-03T10:44:19.446Z,37.35
2022-12-03T10:47:04.760Z,35.50
2022-12-03T10:49:32.467Z,36.97
2022-12-03T10:51:59.888Z,36.75
2022-12-03T10:54:27.738Z,36.70
2022-12-03T10:56:55.079Z,37.97
2022-12-03T10:59:23.573Z,37.17
2022-12-03T11:01:51.154Z,35.35
2022-12-03T11:04:22.857Z,42.90
2022-12-03T11:06:50.301Z,39.72
2022-12-03T11:09:25.029Z,41.70
2022-12-03T11:11:55.107Z,41.88
2022-12-03T11:14:40.813Z,35.70
2022-12-03T11:17:08.092Z,41.38
2022-12-03T11:19:54.391Z,36.72
2022-12-03T11:22:24.592Z,34.17
2022-12-03T11:25:17.610Z,34.53
2022-12-03T11:28:11.794Z,36.92
2022-12-03T11:33:43.501Z,38.72
2022-12-03T11:36:31.643Z,38.10
2022-12-03T11:39:08.201Z,41.60
2022-12-03T11:41:35.785Z,37.42
2022-12-03T11:44:04.778Z,36.83
2022-12-03T11:46:45.894Z,36.78
2022-12-03T11:49:36.646Z,35.63
2022-12-03T11:52:22.795Z,46.75
2022-12-03T11:54:57.710Z,45.85
2022-12-03T11:57:25.172Z,42.88
2022-12-03T11:59:59.753Z,35.63
2022-12-03T12:02:26.890Z,35.80
2022-12-03T12:04:54.001Z,36.00
2022-12-03T12:07:34.436Z,32.75
2022-12-03T12:10:01.859Z,41.85
2022-12-03T12:12:30.890Z,38.63
2022-12-03T12:15:35.245Z,36.70
2022-12-03T12:18:21.295Z,37.60
2022-12-03T12:20:48.329Z,35.88
2022-12-03T12:23:23.336Z,36.13
2022-12-03T12:25:54.128Z,38.00
2022-12-03T12:28:21.437Z,40.75
2022-12-03T12:30:48.332Z,42.97
2022-12-03T12:33:23.406Z,46.67
2022-12-03T12:35:51.007Z,45.53
2022-12-03T12:38:19.368Z,48.75
2022-12-03T12:40:46.965Z,57.45
2022-12-03T12:43:23.712Z,49.35
2022-12-03T12:45:53.195Z,45.75
2022-12-03T12:48:24.432Z,40.10
2022-12-03T12:50:53.175Z,42.30
2022-12-03T12:53:20.106Z,38.40
2022-12-03T12:55:48.110Z,40.58
2022-12-03T12:58:16.383Z,39.40
2022-12-03T13:00:45.163Z,51.72
2022-12-03T13:03:12.233Z,43.72
2022-12-03T13:05:40.766Z,47.33
2022-12-03T13:08:20.066Z,45.17
2022-12-03T13:10:47.010Z,46.78
2022-12-03T13:13:23.168Z,44.72
2022-12-03T13:15:51.865Z,40.10
2022-12-03T13:18:29.960Z,43.03
2022-12-03T13:20:56.860Z,48.83
2022-12-03T13:23:23.542Z,40.05
2022-12-03T13:26:12.907Z,39.70
2022-12-03T13:28:41.407Z,35.40
2022-12-03T13:31:41.901Z,37.05
2022-12-03T13:34:20.108Z,42.00
2022-12-03T13:36:51.973Z,40.15
2022-12-03T13:39:32.517Z,40.78
2022-12-03T13:42:24.584Z,43.20
2022-12-03T13:44:51.916Z,35.85
2022-12-03T13:47:20.586Z,37.78
2022-12-03T13:49:54.894Z,37.42
2022-12-03T13:52:23.926Z,36.10
2022-12-03T13:54:51.967Z,36.42
2022-12-03T13:57:18.960Z,44.80
2022-12-03T13:59:46.153Z,40.85
2022-12-03T14:02:14.951Z,38.95
2022-12-03T14:04:44.502Z,44.88
2022-12-03T14:07:17.794Z,41.33
2022-12-03T14:09:50.725Z,35.25
2022-12-03T14:12:26.914Z,35.55
2022-12-03T14:14:55.020Z,36.95
2022-12-03T14:17:24.753Z,37.10
2022-12-03T14:20:00.285Z,35.50
2022-12-03T14:22:33.244Z,31.67
2022-12-03T14:25:02.572Z,39.10
2022-12-03T14:27:34.902Z,35.70
2022-12-03T14:30:08.907Z,36.40
2022-12-03T14:32:41.330Z,34.72
2022-12-03T14:35:13.912Z,57.13
2022-12-03T14:37:51.918Z,56.30
2022-12-03T14:40:21.854Z,41.65
2022-12-03T14:42:57.839Z,43.20
2022-12-03T14:45:33.566Z,39.30
2022-12-03T14:48:01.961Z,38.80
2022-12-03T14:50:28.692Z,38.28
2022-12-03T14:53:01.908Z,33.92
2022-12-03T14:55:31.282Z,28.05
2022-12-03T14:57:57.948Z,34.45
2022-12-03T15:00:24.604Z,31.77
2022-12-03T15:03:00.733Z,32.60
2022-12-03T15:05:30.495Z,37.30
2022-12-03T15:08:02.928Z,34.20
2022-12-03T15:10:32.863Z,30.50
2022-12-03T15:12:59.597Z,32.35
2022-12-03T15:15:34.712Z,31.90
2022-12-03T15:18:05.323Z,30.52
2022-12-03T15:20:35.744Z,26.27
2022-12-03T15:23:09.953Z,31.65
2022-12-03T15:25:43.028Z,31.95
2022-12-03T15:28:09.884Z,27.48
2022-12-03T15:30:42.223Z,26.85
2022-12-03T15:33:21.872Z,33.63
2022-12-03T15:35:52.191Z,35.38
2022-12-03T15:38:27.338Z,35.10
2022-12-03T15:40:59.740Z,35.63
2022-12-03T15:43:31.582Z,28.95
2022-12-03T15:46:05.103Z,32.55
2022-12-03T15:48:43.261Z,28.75
2022-12-03T15:51:13.140Z,26.75
2022-12-03T15:53:42.716Z,52.15
2022-12-03T15:56:12.194Z,31.27
2022-12-03T15:58:41.254Z,26.30
2022-12-03T16:01:14.361Z,34.47
2022-12-03T16:03:53.029Z,31.17
2022-12-03T16:06:25.907Z,32.00
2022-12-03T16:09:02.525Z,34.83
2022-12-03T16:16:39.028Z,29.50
2022-12-03T16:19:10.078Z,27.23
2022-12-03T16:21:39.919Z,26.13
2022-12-03T16:24:12.547Z,28.58
2022-12-03T16:26:43.799Z,25.80
2022-12-03T16:29:11.828Z,26.15
2022-12-03T16:31:45.805Z,27.85
2022-12-03T16:34:12.853Z,28.95
2022-12-03T16:36:46.715Z,27.17
2022-12-03T16:39:13.770Z,26.08
2022-12-03T16:41:46.534Z,41.90
2022-12-03T16:44:30.499Z,28.73
2022-12-03T16:47:00.125Z,25.93
2022-12-03T16:49:34.834Z,26.00
2022-12-03T16:52:10.761Z,28.20
2022-12-03T16:54:37.475Z,25.83
2022-12-03T16:57:15.189Z,24.90
2022-12-03T16:59:53.300Z,26.00
2022-12-03T17:02:23.518Z,28.83
2022-12-03T17:04:53.359Z,27.95
2022-12-03T17:07:23.799Z,32.53
2022-12-03T17:09:51.963Z,22.25
2022-12-03T17:12:25.500Z,22.90
2022-12-03T17:14:56.569Z,23.27
2022-12-03T17:17:28.224Z,26.92
2022-12-03T17:20:00.853Z,24.63
2022-12-03T17:22:33.836Z,27.20
2022-12-03T17:25:06.176Z,24.88
2022-12-03T17:27:37.029Z,26.45
2022-12-03T17:30:11.768Z,26.25
2022-12-03T17:32:44.749Z,28.00
2022-12-03T17:35:14.698Z,29.23
2022-12-03T17:37:47.696Z,25.50
2022-12-03T17:40:23.797Z,23.80
2022-12-03T17:43:04.545Z,29.08
2022-12-03T17:45:36.815Z,32.67
2022-12-03T17:48:06.686Z,25.23
2022-12-03T17:50:33.380Z,26.35
2022-12-03T17:53:08.046Z,30.02
2022-12-03T17:55:44.539Z,25.30
2022-12-03T17:58:12.937Z,35.17
2022-12-03T18:00:42.749Z,34.92
2022-12-03T18:03:15.862Z,36.13
2022-12-03T18:05:45.853Z,39.97
2022-12-03T18:08:18.874Z,39.92
2022-12-03T18:10:48.106Z,35.97
2022-12-03T18:13:19.331Z,46.47
2022-12-03T18:15:48.237Z,42.90
2022-12-03T18:18:16.644Z,49.63
2022-12-03T18:20:46.335Z,52.17
2022-12-03T18:23:13.820Z,54.70
2022-12-03T18:25:43.350Z,52.45
2022-12-03T18:28:15.687Z,49.83
2022-12-03T18:30:50.628Z,50.45
2022-12-03T18:33:27.441Z,49.13
2022-12-03T18:35:56.184Z,43.15
2022-12-03T18:38:33.672Z,47.08
2022-12-03T18:41:05.158Z,46.65
2022-12-03T18:43:42.438Z,46.22
2022-12-03T18:46:31.313Z,42.75
2022-12-03T18:49:07.690Z,44.70
2022-12-03T18:51:39.579Z,41.35
2022-12-03T18:54:10.941Z,44.45
2022-12-03T18:56:40.733Z,42.08
2022-12-03T19:01:57.483Z,43.80
2022-12-03T19:04:30.165Z,43.42
2022-12-03T19:12:14.811Z,41.38
2022-12-03T19:14:44.416Z,42.05
2022-12-03T19:17:11.173Z,41.83
2022-12-03T19:19:37.890Z,37.72
2022-12-03T19:22:04.581Z,43.75
2022-12-03T19:24:31.256Z,46.60
2022-12-03T19:26:57.899Z,43.42
2022-12-03T19:29:24.917Z,46.13
2022-12-03T19:31:52.434Z,43.35
2022-12-03T19:34:19.343Z,43.70
2022-12-03T19:36:46.170Z,48.75
2022-12-03T19:39:13.111Z,52.53
2022-12-03T19:41:41.091Z,50.38
2022-12-03T19:44:10.946Z,47.83
2022-12-03T19:46:38.037Z,45.88
2022-12-03T19:49:06.240Z,46.67
2022-12-03T19:51:35.446Z,47.13
2022-12-03T19:54:06.629Z,39.28
2022-12-03T19:56:33.805Z,46.42
2022-12-03T19:59:00.870Z,38.38
2022-12-03T20:01:32.176Z,40.08
2022-12-03T20:04:00.103Z,41.90
2022-12-03T20:06:29.465Z,40.42
2022-12-03T20:09:03.981Z,84.03
2022-12-03T20:11:32.173Z,57.78
2022-12-03T20:14:00.124Z,43.90
2022-12-03T20:16:27.745Z,39.45
2022-12-03T20:18:59.052Z,38.55
2022-12-03T20:21:25.809Z,35.60
2022-12-03T20:23:53.077Z,39.03
2022-12-03T20:26:20.959Z,48.53
2022-12-03T20:28:48.146Z,48.45
2022-12-03T20:31:16.493Z,41.88
2022-12-03T20:33:44.654Z,58.03
2022-12-03T20:36:12.337Z,47.80
2022-12-03T20:38:39.035Z,47.20
2022-12-03T20:41:07.772Z,43.20
2022-12-03T20:43:34.516Z,38.33
2022-12-03T20:46:08.991Z,44.60
2022-12-03T20:48:36.330Z,42.72
2022-12-03T20:51:07.380Z,46.15
2022-12-03T20:53:35.061Z,48.95
2022-12-03T20:56:02.323Z,43.90
2022-12-03T20:58:30.585Z,42.13
2022-12-03T21:01:15.693Z,37.67
2022-12-03T21:03:43.332Z,39.40
2022-12-03T21:06:10.370Z,38.65
2022-12-03T21:08:41.407Z,37.53
2022-12-03T21:11:16.289Z,38.53
2022-12-03T21:13:44.184Z,37.70
2022-12-03T21:16:13.517Z,39.55
2022-12-03T21:18:40.590Z,35.63
2022-12-03T21:21:07.700Z,37.70
2022-12-03T21:23:34.966Z,40.63
2022-12-03T21:26:06.425Z,37.33
2022-12-03T21:28:33.515Z,39.45
2022-12-03T21:31:02.211Z,42.50
2022-12-03T21:33:29.767Z,35.80
2022-12-03T21:35:57.286Z,36.95
2022-12-03T21:38:24.429Z,37.45
2022-12-03T21:40:51.215Z,39.17
2022-12-03T21:43:17.945Z,38.08
2022-12-03T21:45:45.811Z,33.20
2022-12-03T21:48:13.774Z,33.20
2022-12-03T21:50:40.878Z,33.88
2022-12-03T21:53:08.106Z,32.35
2022-12-03T21:55:34.927Z,35.72
2022-12-03T21:58:01.856Z,34.90
2022-12-03T22:00:28.594Z,31.98
2022-12-03T22:02:55.997Z,31.60
2022-12-03T22:05:23.000Z,34.75
2022-12-03T22:07:49.788Z,30.75
2022-12-03T22:10:16.497Z,30.45
2022-12-03T22:12:43.176Z,33.92
2022-12-03T22:15:15.082Z,31.73
2022-12-03T22:17:45.362Z,31.75
2022-12-03T22:20:12.289Z,32.17
2022-12-03T22:22:38.992Z,31.42
2022-12-03T22:25:05.829Z,30.35
2022-12-03T22:27:32.888Z,30.45
2022-12-03T22:29:59.632Z,29.50
2022-12-03T22:32:26.386Z,31.25
2022-12-03T22:34:53.095Z,28.00
2022-12-03T22:37:20.036Z,26.15
2022-12-03T22:39:46.743Z,26.63
2022-12-03T22:42:13.503Z,25.55
2022-12-03T22:44:40.185Z,24.42
2022-12-03T22:47:06.916Z,30.33
2022-12-03T22:49:33.584Z,23.58
2022-12-03T22:52:00.426Z,25.67
2022-12-03T22:54:27.164Z,23.00
2022-12-03T22:56:53.852Z,24.42
2022-12-03T22:59:20.598Z,27.92
2022-12-03T23:01:47.721Z,25.77
2022-12-03T23:04:14.562Z,25.33
2022-12-03T23:06:41.473Z,24.27
2022-12-03T23:09:08.379Z,23.05
2022-12-03T23:11:35.242Z,21.50
2022-12-03T23:14:02.120Z,21.05
2022-12-03T23:16:30.182Z,20.50
2022-12-03T23:18:57.955Z,21.25
2022-12-03T23:21:29.255Z,20.52
2022-12-03T23:23:57.278Z,22.55
2022-12-03T23:26:24.019Z,21.30
2022-12-03T23:28:50.750Z,22.90
2022-12-03T23:31:22.250Z,21.00
2022-12-03T23:33:49.633Z,19.38
2022-12-03T23:36:16.501Z,20.02
2022-12-03T23:38:43.449Z,19.70
2022-12-03T23:41:14.523Z,18.92
2022-12-03T23:43:41.539Z,19.73
2022-12-03T23:46:10.697Z,19.48
2022-12-03T23:48:37.701Z,19.02
2022-12-03T23:51:06.103Z,19.40
2022-12-03T23:53:32.984Z,19.95
2022-12-03T23:55:59.646Z,19.02
2022-12-03T23:58:26.831Z,19.25
